Time;durP1;ratioP1;P1;durP2;ratioP2;P2;SDS_P1;SDS_P2;PMS_P1;PMS_P2;Temp;Humidity;BMP_temperature;BMP_pressure;BME280_temperature;BME280_humidity;BME280_pressure;Samples;Min_cycle;Max_cycle;Signal;HPM_P1;HPM_P2
2023/04/03 00:00:49;;;;;;;6.10;2.80;;;5.00;99.90;;;;;;5008660;28;20025;-87
2023/04/03 00:03:15;;;;;;;5.97;2.50;;;5.00;99.90;;;;;;4989151;28;20169;-87
2023/04/03 00:05:41;;;;;;;5.32;2.45;;;5.00;99.90;;;;;;5000456;28;20022;-87
2023/04/03 00:08:09;;;;;;;2.95;2.17;;;5.00;99.90;;;;;;4990200;28;20044;-85
2023/04/03 00:10:35;;;;;;;4.28;2.13;;;5.00;99.90;;;;;;5008911;28;20062;-88
2023/04/03 00:13:04;;;;;;;2.38;1.80;;;5.00;99.90;;;;;;4985994;28;20032;-88
2023/04/03 00:15:32;;;;;;;4.03;2.05;;;5.00;99.90;;;;;;4983814;28;20072;-85
2023/04/03 00:17:58;;;;;;;3.08;2.15;;;5.00;99.90;;;;;;4989705;28;20529;-88
2023/04/03 00:20:23;;;;;;;2.42;1.70;;;5.00;99.90;;;;;;4984218;28;20117;-88
2023/04/03 00:22:50;;;;;;;5.88;1.95;;;5.00;99.90;;;;;;4989786;28;20033;-87
2023/04/03 00:25:18;;;;;;;3.00;1.70;;;5.00;99.90;;;;;;4991128;28;20021;-88
2023/04/03 00:27:43;;;;;;;6.43;2.10;;;5.00;99.90;;;;;;5002155;28;20217;-88
2023/04/03 00:30:13;;;;;;;6.93;1.60;;;5.00;99.90;;;;;;5002235;28;20032;-88
2023/04/03 00:32:38;;;;;;;4.18;1.75;;;5.00;99.90;;;;;;4987599;28;20170;-85
2023/04/03 00:35:05;;;;;;;6.38;2.10;;;5.00;99.90;;;;;;5005667;28;20026;-85
2023/04/03 00:37:30;;;;;;;4.25;1.70;;;5.10;99.90;;;;;;4989633;28;20034;-88
2023/04/03 00:39:56;;;;;;;6.80;1.90;;;5.10;99.90;;;;;;4985391;28;20060;-86
2023/04/03 00:42:22;;;;;;;3.80;1.40;;;5.10;99.90;;;;;;4982907;28;20313;-88
2023/04/03 00:44:47;;;;;;;4.50;1.27;;;5.10;99.90;;;;;;4984088;28;20036;-88
2023/04/03 00:47:17;;;;;;;5.03;1.63;;;5.10;99.90;;;;;;4991574;28;20083;-85
2023/04/03 00:49:44;;;;;;;4.22;1.67;;;5.10;99.90;;;;;;5007804;28;20030;-89
2023/04/03 00:52:13;;;;;;;3.30;1.63;;;5.10;99.90;;;;;;4993111;28;20029;-85
2023/04/03 00:54:41;;;;;;;2.10;1.60;;;5.20;99.90;;;;;;5021224;28;20141;-85
2023/04/03 00:57:08;;;;;;;5.43;1.45;;;5.10;99.90;;;;;;5000562;28;20051;-88
2023/04/03 00:59:42;;;;;;;3.25;1.50;;;5.10;99.90;;;;;;4989172;28;20034;-85
2023/04/03 01:02:08;;;;;;;3.40;1.27;;;5.20;99.90;;;;;;4982085;28;20113;-85
2023/04/03 01:04:39;;;;;;;4.47;1.60;;;5.10;99.90;;;;;;5007826;28;20469;-85
2023/04/03 01:07:08;;;;;;;2.45;1.30;;;5.10;99.90;;;;;;4986774;28;20109;-88
2023/04/03 01:09:34;;;;;;;3.70;1.30;;;5.10;99.90;;;;;;5007636;28;20129;-86
2023/04/03 01:12:17;;;;;;;4.05;1.17;;;5.10;99.90;;;;;;5007409;28;20034;-87
2023/04/03 01:14:47;;;;;;;6.07;1.40;;;5.10;99.90;;;;;;4989427;28;20030;-85
2023/04/03 01:17:42;;;;;;;3.97;1.42;;;5.10;99.90;;;;;;5005311;28;20179;-85
2023/04/03 01:20:35;;;;;;;6.60;1.55;;;5.10;99.90;;;;;;5005603;28;20026;-85
2023/04/03 01:23:10;;;;;;;;;;;5.10;99.90;;;;;;5004630;28;20010;-86
2023/04/03 01:25:48;;;;;;;5.82;1.10;;;5.10;99.90;;;;;;4993065;28;21331;-87
2023/04/03 01:28:18;;;;;;;5.72;1.20;;;5.10;99.90;;;;;;4996961;28;20113;-85
2023/04/03 01:30:46;;;;;;;9.25;1.55;;;5.10;99.90;;;;;;4987223;28;20291;-87
2023/04/03 01:33:14;;;;;;;6.20;1.45;;;5.10;99.90;;;;;;4986830;28;20068;-86
2023/04/03 01:35:39;;;;;;;1.77;1.15;;;5.10;99.90;;;;;;4988734;28;20026;-85
2023/04/03 01:38:05;;;;;;;5.38;1.85;;;5.10;99.90;;;;;;4988538;28;20053;-88
2023/04/03 01:40:31;;;;;;;2.72;1.30;;;5.00;99.90;;;;;;4985676;28;20018;-87
2023/04/03 01:42:57;;;;;;;5.28;1.33;;;5.00;99.90;;;;;;4982159;28;20407;-88
2023/04/03 01:45:23;;;;;;;3.90;1.23;;;4.90;99.90;;;;;;5005558;28;20026;-87
2023/04/03 01:47:50;;;;;;;6.15;1.38;;;5.00;99.90;;;;;;4989101;28;20301;-87
2023/04/03 01:50:16;;;;;;;11.32;1.45;;;5.00;99.90;;;;;;5004594;28;20033;-87
2023/04/03 01:52:42;;;;;;;5.30;1.60;;;5.00;99.90;;;;;;5004579;28;20270;-87
2023/04/03 01:55:08;;;;;;;2.67;1.60;;;5.00;99.90;;;;;;4997739;28;20048;-88
2023/04/03 01:57:33;;;;;;;6.28;1.25;;;4.90;99.90;;;;;;4985460;28;20053;-87
2023/04/03 01:59:59;;;;;;;1.30;1.15;;;4.90;99.90;;;;;;5006645;28;20123;-87
2023/04/03 02:02:25;;;;;;;4.95;1.20;;;4.90;99.90;;;;;;5004974;28;20033;-86
2023/04/03 02:04:50;;;;;;;4.22;1.40;;;4.90;99.90;;;;;;4988245;28;20026;-87
2023/04/03 02:07:16;;;;;;;6.80;1.33;;;4.90;99.90;;;;;;4989729;28;20034;-86
2023/04/03 02:09:41;;;;;;;3.13;1.20;;;4.90;99.90;;;;;;4988948;28;20030;-87
2023/04/03 02:12:07;;;;;;;3.05;1.00;;;4.90;99.90;;;;;;5005108;28;20041;-87
2023/04/03 02:14:33;;;;;;;2.13;1.30;;;4.80;99.90;;;;;;5009528;28;20269;-86
2023/04/03 02:17:00;;;;;;;1.80;1.10;;;4.80;99.90;;;;;;5031559;28;20030;-86
2023/04/03 02:19:26;;;;;;;5.32;1.23;;;4.80;99.90;;;;;;5012387;28;20014;-87
2023/04/03 02:21:51;;;;;;;5.28;1.48;;;4.80;99.90;;;;;;5014499;28;20082;-87
2023/04/03 02:24:17;;;;;;;2.88;1.60;;;4.70;99.90;;;;;;5012116;28;20385;-87
2023/04/03 02:26:43;;;;;;;3.08;1.45;;;4.80;99.90;;;;;;5013539;28;20032;-87
2023/04/03 02:29:10;;;;;;;4.43;1.60;;;4.70;99.90;;;;;;5010059;28;20022;-87
2023/04/03 02:31:39;;;;;;;4.22;1.30;;;4.60;99.90;;;;;;5028217;28;20030;-87
2023/04/03 02:34:04;;;;;;;4.72;1.58;;;4.60;99.90;;;;;;4998633;28;20480;-87
2023/04/03 02:36:32;;;;;;;4.97;1.33;;;4.60;99.90;;;;;;4991295;28;20127;-87
2023/04/03 02:38:57;;;;;;;7.53;1.40;;;4.60;99.90;;;;;;4991097;28;20041;-87
2023/04/03 02:41:25;;;;;;;2.42;1.05;;;4.60;99.90;;;;;;4985549;28;20022;-86
2023/04/03 02:43:50;;;;;;;4.78;1.40;;;4.60;99.90;;;;;;4981832;28;20080;-87
2023/04/03 02:46:18;;;;;;;6.40;1.45;;;4.50;99.90;;;;;;4981922;28;20405;-87
2023/04/03 02:48:44;;;;;;;3.00;1.30;;;4.50;99.90;;;;;;5005206;28;20041;-87
2023/04/03 02:51:12;;;;;;;2.67;1.23;;;4.50;99.90;;;;;;4988431;28;20398;-87
2023/04/03 02:53:37;;;;;;;5.97;1.50;;;4.50;99.90;;;;;;4988758;28;20401;-87
2023/04/03 02:56:03;;;;;;;2.53;1.30;;;4.50;99.90;;;;;;4998061;28;20026;-87
2023/04/03 02:58:29;;;;;;;2.00;1.27;;;4.40;99.90;;;;;;4984644;28;20058;-88
2023/04/03 03:00:54;;;;;;;3.28;1.48;;;4.40;99.90;;;;;;4988632;28;20014;-87
2023/04/03 03:03:20;;;;;;;3.90;1.10;;;4.40;99.90;;;;;;4989646;28;20022;-87
2023/04/03 03:05:47;;;;;;;4.47;1.40;;;4.30;99.90;;;;;;4993062;28;20022;-87
2023/04/03 03:08:13;;;;;;;4.53;1.55;;;4.30;99.90;;;;;;4989457;28;20277;-88
2023/04/03 03:10:39;;;;;;;2.72;1.35;;;4.30;99.90;;;;;;4984870;28;20038;-87
2023/04/03 03:13:04;;;;;;;6.78;1.60;;;4.20;99.90;;;;;;4994839;28;20022;-87
2023/04/03 03:15:30;;;;;;;5.38;1.45;;;4.20;99.90;;;;;;4998342;28;20116;-87
2023/04/03 03:17:55;;;;;;;2.17;1.15;;;4.20;99.90;;;;;;4991796;28;20022;-87
2023/04/03 03:20:21;;;;;;;4.68;1.83;;;4.10;99.90;;;;;;4990262;28;20014;-87
2023/04/03 03:22:47;;;;;;;7.57;1.60;;;4.10;99.90;;;;;;4991626;28;20046;-87
2023/04/03 03:25:13;;;;;;;5.45;1.60;;;4.10;99.90;;;;;;4985321;28;20039;-86
2023/04/03 03:27:38;;;;;;;2.83;1.33;;;4.10;99.90;;;;;;5000894;28;20039;-87
2023/04/03 03:30:05;;;;;;;6.47;1.40;;;4.20;99.90;;;;;;4986390;28;20029;-86
2023/04/03 03:32:31;;;;;;;2.45;1.40;;;4.00;99.90;;;;;;4990257;28;20030;-85
2023/04/03 03:34:56;;;;;;;6.03;1.45;;;4.00;99.90;;;;;;4984279;28;20075;-86
2023/04/03 03:37:24;;;;;;;3.97;1.60;;;4.00;99.90;;;;;;5008526;28;20112;-86
2023/04/03 03:39:50;;;;;;;5.00;1.10;;;4.00;99.90;;;;;;4990765;28;20029;-85
2023/04/03 03:42:16;;;;;;;6.25;1.45;;;3.90;99.90;;;;;;5006444;28;20390;-86
2023/04/03 03:44:41;;;;;;;3.55;1.10;;;3.90;99.90;;;;;;4997849;28;20041;-85
2023/04/03 03:47:09;;;;;;;5.55;1.00;;;3.90;99.90;;;;;;4982103;28;20622;-85
2023/04/03 03:49:35;;;;;;;1.42;1.10;;;3.90;99.90;;;;;;5007444;28;20106;-86
2023/04/03 03:52:00;;;;;;;2.45;1.45;;;3.80;99.90;;;;;;5027187;28;20034;-87
2023/04/03 03:54:26;;;;;;;5.93;1.30;;;3.80;99.90;;;;;;5026563;28;20040;-85
2023/04/03 03:56:51;;;;;;;1.90;1.20;;;3.70;99.90;;;;;;4987642;28;20014;-85
2023/04/03 03:59:17;;;;;;;2.92;1.33;;;3.70;99.90;;;;;;5002865;28;20105;-84
2023/04/03 04:01:45;;;;;;;8.60;1.80;;;3.80;99.90;;;;;;4981693;28;20026;-84
2023/04/03 04:04:11;;;;;;;4.40;1.38;;;3.70;99.90;;;;;;5005133;28;20022;-85
2023/04/03 04:06:36;;;;;;;5.65;1.63;;;3.70;99.90;;;;;;4988806;28;20381;-84
2023/04/03 04:09:02;;;;;;;7.68;1.55;;;3.70;99.90;;;;;;5004425;28;20037;-85
2023/04/03 04:11:28;;;;;;;4.03;1.33;;;3.60;99.90;;;;;;4990526;28;20029;-84
2023/04/03 04:13:53;;;;;;;6.90;1.27;;;3.60;99.90;;;;;;4978682;28;20274;-86
2023/04/03 04:16:21;;;;;;;2.65;1.27;;;3.60;99.90;;;;;;4994557;28;20083;-84
2023/04/03 04:18:46;;;;;;;2.92;1.40;;;3.60;99.90;;;;;;5007825;28;20041;-85
2023/04/03 04:21:12;;;;;;;5.82;1.92;;;3.60;99.90;;;;;;5004862;28;20406;-85
2023/04/03 04:23:38;;;;;;;3.40;1.23;;;3.50;99.90;;;;;;4989404;28;20100;-86
2023/04/03 04:26:03;;;;;;;3.67;1.30;;;3.50;99.90;;;;;;4990690;28;20553;-85
2023/04/03 04:28:29;;;;;;;7.72;1.60;;;3.50;99.90;;;;;;4990056;28;20022;-85
2023/04/03 04:30:57;;;;;;;6.57;1.48;;;3.50;99.90;;;;;;4988629;28;20100;-84
2023/04/03 04:33:22;;;;;;;5.10;1.65;;;3.50;99.90;;;;;;4987947;28;20435;-85
2023/04/03 04:35:48;;;;;;;2.58;1.58;;;3.40;99.90;;;;;;4988469;28;20160;-85
2023/04/03 04:38:14;;;;;;;3.28;1.58;;;3.40;99.90;;;;;;5007079;28;20037;-84
2023/04/03 04:40:40;;;;;;;3.80;1.33;;;3.40;99.90;;;;;;4987976;28;20030;-85
2023/04/03 04:43:08;;;;;;;10.75;1.73;;;3.50;99.90;;;;;;4980016;28;20022;-84
2023/04/03 04:45:36;;;;;;;5.53;1.95;;;3.40;99.90;;;;;;5008217;28;20026;-84
2023/04/03 04:48:01;;;;;;;5.13;1.63;;;3.40;99.90;;;;;;5002256;28;20022;-84
2023/04/03 04:50:27;;;;;;;8.38;1.63;;;3.40;99.90;;;;;;5007003;28;20040;-86
2023/04/03 04:52:55;;;;;;;4.25;1.40;;;3.30;99.90;;;;;;4989546;28;20189;-85
2023/04/03 04:55:23;;;;;;;3.70;1.17;;;3.30;99.90;;;;;;4987304;28;20029;-84
2023/04/03 04:57:48;;;;;;;7.07;1.52;;;3.30;99.90;;;;;;4992243;28;20018;-84
2023/04/03 05:00:17;;;;;;;7.20;2.35;;;3.30;99.90;;;;;;4988864;28;20118;-85
2023/04/03 05:02:43;;;;;;;3.47;1.33;;;3.20;99.90;;;;;;4984233;28;20025;-84
2023/04/03 05:05:08;;;;;;;4.72;1.60;;;3.20;99.90;;;;;;4984583;28;20244;-85
2023/04/03 05:07:35;;;;;;;2.75;1.58;;;3.20;99.90;;;;;;4989641;28;20053;-86
2023/04/03 05:10:02;;;;;;;4.65;1.27;;;3.30;99.90;;;;;;5004929;28;20148;-84
2023/04/03 05:12:35;;;;;;;1.92;1.40;;;3.20;99.90;;;;;;4985045;28;20068;-96
2023/04/03 05:15:01;;;;;;;1.80;1.52;;;3.20;99.90;;;;;;4988734;28;20018;-85
2023/04/03 05:17:26;;;;;;;3.10;1.13;;;3.20;99.90;;;;;;5008604;28;20045;-86
2023/04/03 05:19:52;;;;;;;6.53;1.65;;;3.30;99.90;;;;;;5003222;28;20030;-84
2023/04/03 05:22:18;;;;;;;6.03;1.35;;;3.20;99.90;;;;;;4990536;28;20021;-85
2023/04/03 05:24:46;;;;;;;5.78;1.90;;;3.20;99.90;;;;;;4982819;28;20037;-86
2023/04/03 05:27:14;;;;;;;8.57;1.65;;;3.20;99.90;;;;;;4990661;28;20078;-85
2023/04/03 05:29:43;;;;;;;6.45;2.00;;;3.20;99.90;;;;;;4987763;28;20046;-85
2023/04/03 05:32:10;;;;;;;7.05;1.95;;;3.20;99.90;;;;;;5008046;28;20022;-85
2023/04/03 05:34:40;;;;;;;10.15;2.17;;;3.30;99.90;;;;;;4983063;28;20018;-86
2023/04/03 05:37:06;;;;;;;4.32;1.70;;;3.30;99.90;;;;;;4982195;28;20030;-87
2023/04/03 05:39:33;;;;;;;8.13;3.70;;;3.30;99.90;;;;;;5003555;28;20380;-85
2023/04/03 05:42:01;;;;;;;2.38;1.10;;;3.30;99.90;;;;;;4983020;28;20240;-86
2023/04/03 05:44:26;;;;;;;2.13;1.33;;;3.40;99.90;;;;;;5000997;28;20018;-85
2023/04/03 05:46:52;;;;;;;5.47;1.77;;;3.30;99.90;;;;;;4985474;28;20133;-85
2023/04/03 05:49:18;;;;;;;4.13;1.58;;;3.30;99.90;;;;;;4987904;28;20101;-85
2023/04/03 05:51:45;;;;;;;4.88;1.45;;;3.40;99.90;;;;;;4988335;28;20021;-85
2023/04/03 05:54:23;;;;;;;2.95;1.75;;;3.40;99.90;;;;;;4993262;28;20621;-86
2023/04/03 05:56:50;;;;;;;5.13;1.75;;;3.50;99.90;;;;;;4997741;28;20026;-85
2023/04/03 05:59:19;;;;;;;6.43;1.50;;;3.50;99.90;;;;;;4997783;28;20281;-84
2023/04/03 06:01:45;;;;;;;8.23;1.85;;;3.50;99.90;;;;;;4988498;28;20118;-85
2023/04/03 06:04:14;;;;;;;4.10;1.02;;;3.60;99.90;;;;;;4988189;28;20026;-85
2023/04/03 06:06:58;;;;;;;4.53;1.23;;;3.60;99.90;;;;;;4985024;28;20026;-86
2023/04/03 06:09:28;;;;;;;6.60;1.45;;;3.60;99.90;;;;;;4987567;28;20132;-85
2023/04/03 06:11:58;;;;;;;4.45;1.50;;;3.70;99.90;;;;;;5005900;28;20041;-85
2023/04/03 06:14:25;;;;;;;3.72;1.77;;;3.70;99.90;;;;;;5000333;28;20313;-85
2023/04/03 06:16:51;;;;;;;5.93;2.05;;;3.70;99.90;;;;;;5000224;28;20513;-86
2023/04/03 06:19:17;;;;;;;5.05;1.15;;;3.80;99.90;;;;;;4981756;28;20410;-86
2023/04/03 06:21:43;;;;;;;9.60;2.25;;;3.90;99.90;;;;;;4980428;28;20031;-86
2023/04/03 06:24:12;;;;;;;7.97;1.63;;;3.90;99.90;;;;;;4981712;28;20034;-86
2023/04/03 06:26:40;;;;;;;9.98;1.60;;;3.90;99.90;;;;;;4983465;28;20025;-86
2023/04/03 06:29:07;;;;;;;6.40;1.60;;;3.90;99.90;;;;;;4989039;28;20963;-86
2023/04/03 06:31:32;;;;;;;3.80;1.38;;;4.00;99.90;;;;;;5006917;28;20630;-86
2023/04/03 06:33:58;;;;;;;8.82;1.23;;;4.00;99.90;;;;;;4985417;28;20101;-86
2023/04/03 06:36:26;;;;;;;3.03;1.50;;;4.00;99.90;;;;;;4989509;28;20068;-85
2023/04/03 06:38:52;;;;;;;4.03;1.45;;;4.10;99.90;;;;;;4984798;28;20186;-86
2023/04/03 06:41:21;;;;;;;3.45;1.58;;;4.20;99.90;;;;;;5011068;28;20029;-85
2023/04/03 06:43:49;;;;;;;2.13;1.30;;;4.20;99.90;;;;;;5008937;28;20053;-86
2023/04/03 06:46:21;;;;;;;4.13;1.65;;;4.20;99.90;;;;;;5006035;28;20026;-86
2023/04/03 06:48:49;;;;;;;7.68;1.88;;;4.20;99.90;;;;;;4996292;28;20054;-86
2023/04/03 06:51:28;;;;;;;9.15;2.45;;;4.30;99.90;;;;;;5011876;28;20034;-85
2023/04/03 06:53:55;;;;;;;8.95;2.95;;;4.40;99.90;;;;;;5004117;28;20061;-91
2023/04/03 06:56:22;;;;;;;8.88;1.55;;;4.40;99.90;;;;;;4993286;28;20025;-86
2023/04/03 06:58:47;;;;;;;12.02;3.30;;;4.50;99.90;;;;;;4992563;28;20038;-89
2023/04/03 07:01:18;;;;;;;10.02;1.40;;;4.60;99.90;;;;;;4986356;28;20040;-88
2023/04/03 07:03:46;;;;;;;5.47;1.70;;;4.60;99.90;;;;;;4993013;28;20033;-86
2023/04/03 07:06:13;;;;;;;6.07;1.70;;;4.60;99.90;;;;;;4990780;28;20046;-85
2023/04/03 07:08:42;;;;;;;3.67;1.42;;;4.70;99.90;;;;;;5005857;28;20096;-85
2023/04/03 07:11:09;;;;;;;7.97;1.65;;;4.80;99.90;;;;;;4983915;28;20026;-86
2023/04/03 07:13:35;;;;;;;7.90;2.38;;;4.70;99.90;;;;;;4992378;28;20030;-86
2023/04/03 07:16:01;;;;;;;8.90;1.58;;;4.80;99.90;;;;;;5007956;28;20447;-88
2023/04/03 07:18:27;;;;;;;6.25;1.65;;;5.00;99.90;;;;;;5009887;28;20036;-85
2023/04/03 07:20:53;;;;;;;4.70;1.35;;;5.00;99.90;;;;;;4990393;28;20037;-86
2023/04/03 07:25:55;;;;;;;2.97;1.48;;;5.00;99.90;;;;;;5412534;23;20046;-87
2023/04/03 07:28:22;;;;;;;2.47;1.42;;;5.00;99.90;;;;;;4964678;28;20062;-91
2023/04/03 07:31:10;;;;;;;4.30;1.60;;;5.10;99.90;;;;;;4959687;28;20492;-88
2023/04/03 07:33:36;;;;;;;8.77;2.13;;;5.10;99.90;;;;;;4939595;28;20138;-84
2023/04/03 07:36:03;;;;;;;5.30;1.48;;;5.10;99.90;;;;;;4954510;28;20033;-84
2023/04/03 07:38:29;;;;;;;4.30;1.42;;;5.30;99.90;;;;;;4938092;28;20550;-84
2023/04/03 07:40:55;;;;;;;7.55;1.65;;;5.40;99.90;;;;;;4946072;28;20027;-86
2023/04/03 07:43:24;;;;;;;5.97;1.20;;;5.50;99.90;;;;;;4939318;28;20089;-84
2023/04/03 07:45:51;;;;;;;4.05;1.52;;;5.50;99.90;;;;;;4956620;28;20050;-86
2023/04/03 07:48:21;;;;;;;6.30;1.35;;;5.60;99.90;;;;;;4940491;28;20529;-87
2023/04/03 07:50:47;;;;;;;9.05;1.35;;;5.60;99.90;;;;;;4953627;28;20031;-85
2023/04/03 07:53:16;;;;;;;5.85;1.52;;;5.60;99.90;;;;;;4942353;28;20192;-84
2023/04/03 07:55:43;;;;;;;2.90;1.40;;;5.70;99.90;;;;;;4953855;28;20456;-85
2023/04/03 07:58:12;;;;;;;5.20;1.80;;;5.80;99.90;;;;;;4946768;28;20062;-85
2023/04/03 08:00:41;;;;;;;3.67;1.67;;;5.80;99.90;;;;;;4939157;28;20534;-83
2023/04/03 08:03:09;;;;;;;8.82;2.08;;;5.90;99.90;;;;;;4942583;28;20038;-85
2023/04/03 08:05:44;;;;;;;4.95;1.50;;;6.00;99.90;;;;;;4938219;28;20058;-86
2023/04/03 08:08:17;;;;;;;3.60;1.42;;;6.20;99.90;;;;;;4941436;28;20111;-84
2023/04/03 08:10:42;;;;;;;7.90;1.55;;;6.30;99.90;;;;;;4958391;28;20089;-85
2023/04/03 08:13:09;;;;;;;5.30;1.70;;;6.40;99.90;;;;;;4943607;28;20060;-85
2023/04/03 08:15:35;;;;;;;5.57;1.63;;;6.60;99.90;;;;;;4943476;28;20030;-85
2023/04/03 08:18:02;;;;;;;6.40;2.28;;;6.70;99.90;;;;;;4943335;28;20379;-87
2023/04/03 08:20:28;;;;;;;3.03;1.30;;;6.80;99.90;;;;;;4954852;28;20027;-86
2023/04/03 08:22:54;;;;;;;3.20;1.27;;;6.90;99.90;;;;;;4938596;28;20026;-86
2023/04/03 08:25:19;;;;;;;3.40;1.33;;;7.00;99.90;;;;;;4953639;28;20049;-84
2023/04/03 08:27:45;;;;;;;3.10;1.48;;;7.20;99.90;;;;;;4941104;28;20655;-85
2023/04/03 08:30:11;;;;;;;5.35;1.42;;;7.20;99.90;;;;;;4941833;28;20031;-84
2023/04/03 08:32:37;;;;;;;5.75;1.40;;;7.40;99.90;;;;;;4953571;28;20050;-86
2023/04/03 08:35:04;;;;;;;3.03;1.15;;;7.50;99.90;;;;;;4955584;28;20062;-84
2023/04/03 08:37:30;;;;;;;1.23;0.88;;;7.70;99.90;;;;;;4936025;28;20039;-86
2023/04/03 08:39:56;;;;;;;2.22;1.35;;;8.00;99.90;;;;;;4943196;28;20027;-84
2023/04/03 08:42:41;;;;;;;6.25;1.55;;;8.20;98.60;;;;;;4957052;28;20088;-83
2023/04/03 08:45:25;;;;;;;3.63;1.05;;;8.40;97.20;;;;;;4959264;28;20533;-84
2023/04/03 08:48:02;;;;;;;4.28;1.10;;;8.70;97.60;;;;;;4961395;28;20234;-85
2023/04/03 08:50:40;;;;;;;2.47;1.10;;;8.90;95.80;;;;;;4952905;28;20039;-85
2023/04/03 08:53:10;;;;;;;4.97;1.08;;;9.20;95.10;;;;;;4979227;28;20600;-86
2023/04/03 08:55:45;;;;;;;3.30;1.20;;;9.50;94.50;;;;;;4978182;28;20007;-85
2023/04/03 08:58:25;;;;;;;5.35;1.27;;;9.90;93.40;;;;;;4963537;28;20323;-86
2023/04/03 09:01:24;;;;;;;5.55;1.00;;;10.30;91.80;;;;;;4965010;28;20019;-86
2023/04/03 09:03:50;;;;;;;1.33;1.02;;;10.50;89.70;;;;;;4976129;28;20115;-87
2023/04/03 09:06:21;;;;;;;2.53;1.27;;;10.60;87.30;;;;;;4976172;28;20031;-83
2023/04/03 09:09:10;;;;;;;3.28;1.00;;;10.70;84.80;;;;;;4976508;28;20026;-84
2023/04/03 09:12:00;;;;;;;2.63;0.90;;;10.60;83.40;;;;;;4942393;28;20114;-84
2023/04/03 09:14:56;;;;;;;1.15;1.05;;;10.50;81.40;;;;;;4958783;28;20061;-85
2023/04/03 09:17:41;;;;;;;3.97;0.90;;;10.60;78.40;;;;;;4945919;28;20606;-85
2023/04/03 09:20:31;;;;;;;2.47;1.10;;;10.60;74.10;;;;;;4953418;28;20035;-85
2023/04/03 09:22:57;;;;;;;1.85;1.20;;;10.70;75.50;;;;;;4942431;28;20538;-84
2023/04/03 09:25:32;;;;;;;2.92;1.60;;;10.70;72.50;;;;;;4951972;28;20133;-83
2023/04/03 09:28:02;;;;;;;1.30;1.17;;;11.00;74.60;;;;;;4955168;28;20030;-84
2023/04/03 09:30:28;;;;;;;1.83;1.00;;;11.30;72.50;;;;;;4960389;28;20054;-85
2023/04/03 09:32:57;;;;;;;6.78;1.13;;;11.60;70.00;;;;;;4961570;28;20189;-86
2023/04/03 09:35:30;;;;;;;1.27;0.80;;;11.90;71.40;;;;;;4953410;28;20062;-84
2023/04/03 09:38:10;;;;;;;2.40;0.80;;;12.20;68.30;;;;;;4956648;28;20095;-84
2023/04/03 09:40:46;;;;;;;1.70;1.10;;;12.70;71.50;;;;;;4941165;28;20050;-86
2023/04/03 09:43:24;;;;;;;1.38;0.90;;;13.20;69.00;;;;;;4919835;29;20027;-83
2023/04/03 09:45:51;;;;;;;0.88;0.80;;;13.40;62.20;;;;;;4931481;28;20476;-84
2023/04/03 09:48:19;;;;;;;1.33;0.80;;;13.50;60.40;;;;;;4937866;28;20030;-84
2023/04/03 09:51:01;;;;;;;1.90;0.70;;;14.00;60.10;;;;;;4923383;29;20030;-85
2023/04/03 09:53:31;;;;;;;2.25;0.90;;;14.60;59.70;;;;;;4935533;28;20110;-84
2023/04/03 09:56:00;;;;;;;1.45;1.00;;;14.90;55.80;;;;;;4914878;29;20229;-83
2023/04/03 09:58:37;;;;;;;2.60;1.00;;;14.40;54.40;;;;;;4923732;28;20088;-84
2023/04/03 10:01:03;;;;;;;1.10;1.00;;;14.30;54.70;;;;;;4936378;28;20028;-84
2023/04/03 10:03:39;;;;;;;3.38;1.13;;;14.20;52.20;;;;;;4924694;28;20047;-84
2023/04/03 10:06:24;;;;;;;6.32;1.58;;;14.00;52.60;;;;;;4922269;29;20019;-83
2023/04/03 10:09:04;;;;;;;4.82;1.38;;;13.90;53.00;;;;;;4916013;28;20023;-82
2023/04/03 10:11:35;;;;;;;6.57;1.00;;;13.50;52.40;;;;;;4921749;28;20031;-83
2023/04/03 10:14:04;;;;;;;2.25;1.05;;;13.20;53.50;;;;;;4933352;28;20481;-84
2023/04/03 10:16:41;;;;;;;5.55;1.10;;;13.00;55.20;;;;;;4929947;28;20079;-83
2023/04/03 10:19:21;;;;;;;5.85;1.13;;;12.90;53.00;;;;;;4932456;28;20036;-83
2023/04/03 10:22:18;;;;;;;3.15;1.23;;;12.90;53.70;;;;;;4933172;28;20440;-83
2023/04/03 10:24:56;;;;;;;5.18;1.27;;;12.60;53.90;;;;;;4934546;28;20042;-83
2023/04/03 10:27:56;;;;;;;1.58;1.25;;;12.50;54.20;;;;;;4918281;28;20266;-86
2023/04/03 10:30:33;;;;;;;2.33;0.90;;;12.70;55.20;;;;;;4935359;28;20407;-86
2023/04/03 10:33:05;;;;;;;399.70;42.72;;;13.00;55.50;;;;;;4936540;28;20082;-85
2023/04/03 10:35:43;;;;;;;18.77;2.67;;;13.20;54.80;;;;;;4935736;28;20038;-86
2023/04/03 10:38:19;;;;;;;1954.43;241.63;;;13.50;54.50;;;;;;4936780;28;20483;-84
2023/04/03 10:40:49;;;;;;;39.08;5.38;;;13.60;55.50;;;;;;4937718;28;20038;-85
2023/04/03 10:43:27;;;;;;;3.00;1.25;;;13.40;54.50;;;;;;4940973;28;20038;-82
2023/04/03 10:46:21;;;;;;;2.25;1.00;;;13.60;54.10;;;;;;4937780;28;20299;-81
2023/04/03 10:48:53;;;;;;;1.42;0.80;;;13.60;54.30;;;;;;4943419;28;20031;-82
2023/04/03 10:51:29;;;;;;;0.90;0.90;;;13.40;54.20;;;;;;4936502;28;20024;-83
2023/04/03 10:54:04;;;;;;;3.58;1.00;;;13.10;52.30;;;;;;4917801;28;20033;-85
2023/04/03 10:56:42;;;;;;;3.50;1.10;;;13.30;53.90;;;;;;4935037;28;20058;-87
2023/04/03 10:59:25;;;;;;;2.75;0.90;;;13.10;51.70;;;;;;4915693;28;20100;-85
2023/04/03 11:01:56;;;;;;;1.27;1.00;;;13.20;53.00;;;;;;4915805;29;20028;-86
2023/04/03 11:04:25;;;;;;;1.60;1.00;;;13.30;53.80;;;;;;4927234;28;20565;-81
2023/04/03 11:07:08;;;;;;;1.70;0.88;;;13.60;55.40;;;;;;4938340;28;20034;-83
2023/04/03 11:09:37;;;;;;;5.22;1.10;;;13.80;54.20;;;;;;4930670;28;20028;-85
2023/04/03 11:12:19;;;;;;;3.70;1.23;;;14.40;54.00;;;;;;4935672;28;20023;-83
2023/04/03 11:14:46;;;;;;;5.63;1.25;;;14.50;53.60;;;;;;4933894;28;20026;-84
2023/04/03 11:17:18;;;;;;;1.35;0.98;;;14.60;54.10;;;;;;4937146;28;20138;-85
2023/04/03 11:19:46;;;;;;;2.05;1.10;;;14.60;53.20;;;;;;4927508;29;20027;-85
2023/04/03 11:22:23;;;;;;;2.20;1.05;;;14.20;52.70;;;;;;4936233;28;20406;-83
2023/04/03 11:25:15;;;;;;;3.72;1.00;;;13.90;53.00;;;;;;4937830;28;20436;-82
2023/04/03 11:27:50;;;;;;;2.65;1.15;;;13.50;53.70;;;;;;4920659;29;20031;-84
2023/04/03 11:30:21;;;;;;;5.90;1.20;;;12.90;53.60;;;;;;4936810;28;20539;-83
2023/04/03 11:33:15;;;;;;;1.80;0.98;;;13.00;54.50;;;;;;4936154;28;20435;-84
2023/04/03 11:36:02;;;;;;;;;;;13.10;54.50;;;;;;4931905;28;20272;-83
2023/04/03 11:38:36;;;;;;;1.50;0.98;;;13.20;54.00;;;;;;4923516;28;19918;-85
2023/04/03 11:41:03;;;;;;;3.30;1.13;;;13.20;54.00;;;;;;4934577;28;20035;-84
2023/04/03 11:43:31;;;;;;;4.35;1.20;;;13.30;56.60;;;;;;4919535;28;20566;-83
2023/04/03 11:46:03;;;;;;;2.42;1.30;;;13.50;54.50;;;;;;4922111;29;20059;-84
2023/04/03 11:48:32;;;;;;;5.97;1.30;;;13.50;54.10;;;;;;4918014;28;20038;-83
2023/04/03 11:51:22;;;;;;;2.78;1.10;;;13.60;54.20;;;;;;4920056;29;20134;-85
2023/04/03 11:53:48;;;;;;;7.38;1.40;;;13.70;54.50;;;;;;4921862;28;20030;-85
2023/04/03 11:56:23;;;;;;;3.35;1.38;;;13.90;53.10;;;;;;4934724;28;20023;-84
2023/04/03 11:59:22;;;;;;;17.20;1.85;;;13.90;54.70;;;;;;4917060;29;20102;-83
2023/04/03 12:01:56;;;;;;;8.50;1.30;;;14.10;54.30;;;;;;4928548;28;20444;-84
2023/04/03 12:04:25;;;;;;;0.90;0.80;;;14.00;54.00;;;;;;4936576;28;20077;-85
2023/04/03 12:06:58;;;;;;;6.28;1.20;;;14.00;53.10;;;;;;4920017;29;20377;-83
2023/04/03 12:09:32;;;;;;;1.92;1.20;;;13.80;52.80;;;;;;4913429;28;20087;-85
2023/04/03 12:12:01;;;;;;;2.25;1.00;;;14.00;53.60;;;;;;4918265;29;20475;-83
2023/04/03 12:14:28;;;;;;;5.55;1.15;;;14.40;53.60;;;;;;4933307;28;20491;-81
2023/04/03 12:16:57;;;;;;;5.15;1.17;;;14.80;54.00;;;;;;4932417;29;20023;-85
2023/04/03 12:19:44;;;;;;;4.95;1.20;;;15.10;53.70;;;;;;4949088;28;20054;-83
2023/04/03 12:22:14;;;;;;;2.30;0.68;;;15.10;51.40;;;;;;4942036;28;20224;-84
2023/04/03 12:24:42;;;;;;;2.90;1.10;;;15.40;52.70;;;;;;4934421;28;20483;-83
2023/04/03 12:27:14;;;;;;;2.10;0.90;;;15.50;51.30;;;;;;4937355;28;20039;-84
2023/04/03 12:29:47;;;;;;;6.60;1.50;;;15.70;50.50;;;;;;4937054;28;20087;-81
2023/04/03 12:32:26;;;;;;;3.63;1.30;;;15.20;50.20;;;;;;4935795;28;20034;-83
2023/04/03 12:35:24;;;;;;;3.47;1.35;;;15.00;51.20;;;;;;4938451;28;20402;-82
2023/04/03 12:38:30;;;;;;;2.83;1.10;;;15.30;52.10;;;;;;4917301;29;20035;-83
2023/04/03 12:41:17;;;;;;;4.97;1.10;;;15.40;50.80;;;;;;4933746;28;20089;-83
2023/04/03 12:44:20;;;;;;;2.40;1.17;;;15.70;50.00;;;;;;4934494;28;20100;-82
2023/04/03 12:46:49;;;;;;;3.92;1.05;;;15.90;50.90;;;;;;4932289;28;20040;-82
2023/04/03 12:49:38;;;;;;;3.75;1.10;;;16.40;51.00;;;;;;4935666;28;20028;-82
2023/04/03 12:52:22;;;;;;;6.88;1.10;;;16.40;48.80;;;;;;4921782;29;20024;-82
2023/04/03 12:54:48;;;;;;;4.35;1.20;;;15.70;48.40;;;;;;4937909;28;20027;-82
2023/04/03 12:57:21;;;;;;;1.67;0.98;;;15.70;50.30;;;;;;4920768;29;20385;-87
2023/04/03 12:59:47;;;;;;;;;;;15.60;50.20;;;;;;4932678;28;20051;-82
2023/04/03 13:02:28;;;;;;;2.25;1.02;;;15.90;49.80;;;;;;4933094;28;19911;-85
2023/04/03 13:04:59;;;;;;;248.73;90.40;;;16.00;48.80;;;;;;4936485;28;20547;-83
2023/04/03 13:07:33;;;;;;;4.40;1.25;;;16.10;50.60;;;;;;4920139;29;20019;-83
2023/04/03 13:10:25;;;;;;;2.20;1.00;;;16.20;49.40;;;;;;4918582;29;20031;-82
2023/04/03 13:13:08;;;;;;;2.27;1.03;;;16.10;50.10;;;;;;4933121;28;20067;-82